createdAt,value
2022-09-20T00:01:35.871Z,75.40
2022-09-20T00:04:06.944Z,75.49
2022-09-20T00:06:36.498Z,75.35
2022-09-20T00:09:06.270Z,75.15
2022-09-20T00:11:36.376Z,75.03
2022-09-20T00:14:08.742Z,75.08
2022-09-20T00:16:40.573Z,74.94
2022-09-20T00:19:18.258Z,74.63
2022-09-20T00:21:46.668Z,74.55
2022-09-20T00:24:15.079Z,74.85
2022-09-20T00:26:43.476Z,75.21
2022-09-20T00:29:12.739Z,76.17
2022-09-20T00:31:42.814Z,76.28
2022-09-20T00:34:31.331Z,76.73
2022-09-20T00:36:59.702Z,77.09
2022-09-20T00:39:28.162Z,76.40
2022-09-20T00:41:56.480Z,76.37
2022-09-20T00:44:57.249Z,76.29
2022-09-20T00:47:39.461Z,75.94
2022-09-20T00:50:23.986Z,76.10
2022-09-20T00:52:58.610Z,76.12
2022-09-20T00:55:28.258Z,76.18
2022-09-20T00:57:56.894Z,76.32
2022-09-20T01:00:25.398Z,76.62
2022-09-20T01:02:59.462Z,76.65
2022-09-20T01:05:29.518Z,76.79
2022-09-20T01:07:58.898Z,76.91
2022-09-20T01:10:27.395Z,76.71
2022-09-20T01:12:56.186Z,76.22
2022-09-20T01:15:27.942Z,75.98
2022-09-20T01:17:59.478Z,75.92
2022-09-20T01:20:33.046Z,75.75
2022-09-20T01:23:28.512Z,75.75
2022-09-20T01:26:32.056Z,75.55
2022-09-20T01:29:12.042Z,74.97
2022-09-20T01:31:47.922Z,75.08
2022-09-20T01:34:19.587Z,75.53
2022-09-20T01:36:54.338Z,75.49
2022-09-20T01:39:34.628Z,75.69
2022-09-20T01:42:07.808Z,76.05
2022-09-20T01:44:44.347Z,76.50
2022-09-20T01:47:25.631Z,76.80
2022-09-20T01:50:04.801Z,77.29
2022-09-20T01:53:17.779Z,77.39
2022-09-20T01:56:33.460Z,77.42
2022-09-20T01:59:48.139Z,77.53
2022-09-20T02:03:12.614Z,77.43
2022-09-20T02:06:12.836Z,77.45
2022-09-20T02:09:26.807Z,77.45
2022-09-20T02:12:24.011Z,77.53
2022-09-20T02:15:04.749Z,77.34
2022-09-20T02:17:42.812Z,77.15
2022-09-20T02:20:37.868Z,78.05
2022-09-20T02:23:23.437Z,78.00
2022-09-20T02:26:06.555Z,78.03
2022-09-20T02:28:55.877Z,77.98
2022-09-20T02:32:14.815Z,77.54
2022-09-20T02:35:09.727Z,77.54
2022-09-20T02:38:03.024Z,77.71
2022-09-20T02:41:05.221Z,77.77
2022-09-20T02:43:47.779Z,77.28
2022-09-20T02:46:25.623Z,77.17
2022-09-20T02:49:03.059Z,77.41
2022-09-20T02:51:41.004Z,77.72
2022-09-20T02:54:24.039Z,77.79
2022-09-20T02:57:01.625Z,77.62
2022-09-20T02:59:40.358Z,78.21
2022-09-20T03:02:19.700Z,78.61
2022-09-20T03:05:04.716Z,79.09
2022-09-20T03:07:47.189Z,79.48
2022-09-20T03:10:26.605Z,79.78
2022-09-20T03:13:12.139Z,80.08
2022-09-20T03:15:56.799Z,79.98
2022-09-20T03:18:42.253Z,79.84
2022-09-20T03:21:35.025Z,80.12
2022-09-20T03:24:16.062Z,79.85
2022-09-20T03:26:57.366Z,79.80
2022-09-20T03:29:46.715Z,79.64
2022-09-20T03:32:32.136Z,79.68
2022-09-20T03:35:16.937Z,79.72
2022-09-20T03:38:09.935Z,80.03
2022-09-20T03:41:30.686Z,80.22
2022-09-20T03:44:25.850Z,79.55
2022-09-20T03:47:09.482Z,79.42
2022-09-20T03:50:02.439Z,79.41
2022-09-20T03:53:02.562Z,80.53
2022-09-20T03:56:18.777Z,81.41
2022-09-20T03:59:10.739Z,80.88
2022-09-20T04:02:08.147Z,80.43
2022-09-20T04:04:47.056Z,80.58
2022-09-20T04:07:23.646Z,80.17
2022-09-20T04:10:20.359Z,79.60
2022-09-20T04:13:06.414Z,80.09
2022-09-20T04:15:51.202Z,80.02
2022-09-20T04:18:30.212Z,79.49
2022-09-20T04:21:06.367Z,79.08
2022-09-20T04:23:46.284Z,78.39
2022-09-20T04:26:23.739Z,78.01
2022-09-20T04:28:58.528Z,77.86
2022-09-20T04:31:41.174Z,77.67
2022-09-20T04:34:18.362Z,77.63
2022-09-20T04:36:58.974Z,77.24
2022-09-20T04:39:44.340Z,77.24
2022-09-20T04:42:58.933Z,77.36
2022-09-20T04:46:21.537Z,77.18
2022-09-20T04:49:28.275Z,76.90
2022-09-20T04:52:56.825Z,76.90
2022-09-20T04:55:52.121Z,76.64
2022-09-20T04:58:52.439Z,76.44
2022-09-20T05:02:16.363Z,76.05
2022-09-20T05:05:30.112Z,76.20
2022-09-20T05:08:55.384Z,76.32
2022-09-20T05:12:19.524Z,77.12
2022-09-20T05:15:17.241Z,76.50
2022-09-20T05:18:19.597Z,76.10
2022-09-20T05:21:08.235Z,75.37
2022-09-20T05:23:56.477Z,75.16
2022-09-20T05:26:38.982Z,75.12
2022-09-20T05:29:16.111Z,74.90
2022-09-20T05:31:53.220Z,74.74
2022-09-20T05:34:33.150Z,74.45
2022-09-20T05:37:13.474Z,74.15
2022-09-20T05:39:50.888Z,73.82
2022-09-20T05:42:28.661Z,73.74
2022-09-20T05:45:08.885Z,73.59
2022-09-20T05:47:46.229Z,73.24
2022-09-20T05:50:37.052Z,73.20
2022-09-20T05:53:41.695Z,72.80
2022-09-20T05:56:22.497Z,72.65
2022-09-20T05:59:17.206Z,72.53
2022-09-20T06:02:00.159Z,72.74
2022-09-20T06:04:35.867Z,73.96
2022-09-20T06:07:17.842Z,75.46
2022-09-20T06:10:23.470Z,75.27
2022-09-20T06:13:00.646Z,74.64
2022-09-20T06:15:37.834Z,74.09
2022-09-20T06:18:27.093Z,73.79
2022-09-20T06:21:08.761Z,73.58
2022-09-20T06:23:37.714Z,73.61
2022-09-20T06:26:14.823Z,74.49
2022-09-20T06:28:48.482Z,74.12
2022-09-20T06:31:17.359Z,73.86
2022-09-20T06:33:52.129Z,74.21
2022-09-20T06:36:42.326Z,73.80
2022-09-20T06:39:40.696Z,73.73
2022-09-20T06:42:11.157Z,73.33
2022-09-20T06:44:43.005Z,73.48
2022-09-20T06:47:12.131Z,73.30
2022-09-20T06:49:42.392Z,73.19
2022-09-20T06:52:15.909Z,73.25
2022-09-20T06:54:45.716Z,73.08
2022-09-20T06:57:19.687Z,73.26
2022-09-20T06:59:48.180Z,73.81
2022-09-20T07:02:16.803Z,74.50
2022-09-20T07:04:46.547Z,75.53
2022-09-20T07:07:19.339Z,75.05
2022-09-20T07:09:47.671Z,74.59
2022-09-20T07:12:18.301Z,74.95
2022-09-20T07:14:46.534Z,75.34
2022-09-20T07:17:14.841Z,75.23
2022-09-20T07:19:43.196Z,74.59
2022-09-20T07:22:11.517Z,74.00
2022-09-20T07:24:41.190Z,73.18
2022-09-20T07:27:11.568Z,71.83
2022-09-20T07:29:41.487Z,71.87
2022-09-20T07:32:09.966Z,71.70
2022-09-20T07:34:38.354Z,71.81
2022-09-20T07:37:06.700Z,71.66
2022-09-20T07:39:35.173Z,71.17
2022-09-20T07:42:06.361Z,71.20
2022-09-20T07:44:34.842Z,70.69
2022-09-20T07:47:04.757Z,70.27
2022-09-20T07:49:33.193Z,70.70
2022-09-20T07:52:01.509Z,69.32
2022-09-20T07:54:30.162Z,66.63
2022-09-20T07:56:58.515Z,65.29
2022-09-20T07:59:26.914Z,65.59
2022-09-20T08:01:55.280Z,64.66
2022-09-20T08:04:24.985Z,64.49
2022-09-20T08:06:53.435Z,62.21
2022-09-20T08:09:21.919Z,60.77
2022-09-20T08:11:50.249Z,58.03
2022-09-20T08:14:20.025Z,56.02
2022-09-20T08:16:50.442Z,54.84
2022-09-20T08:19:21.762Z,52.55
2022-09-20T08:21:53.918Z,54.11
2022-09-20T08:24:22.661Z,52.74
2022-09-20T08:26:51.082Z,50.05
2022-09-20T08:29:19.620Z,48.73
2022-09-20T08:31:48.112Z,48.38
2022-09-20T08:34:17.724Z,46.59
2022-09-20T08:36:50.095Z,45.39
2022-09-20T08:42:22.924Z,44.92
2022-09-20T08:44:59.535Z,45.19
2022-09-20T08:47:31.339Z,44.27
2022-09-20T08:50:08.890Z,43.80
2022-09-20T08:52:40.732Z,45.18
2022-09-20T08:55:17.341Z,45.01
2022-09-20T08:57:50.208Z,45.28
2022-09-20T09:00:21.622Z,46.07
2022-09-20T09:02:54.079Z,46.93
2022-09-20T09:05:34.939Z,47.16
2022-09-20T09:08:12.430Z,47.53
2022-09-20T09:10:42.848Z,48.71
2022-09-20T09:13:23.614Z,48.23
2022-09-20T09:15:58.612Z,47.58
2022-09-20T09:18:35.139Z,48.16
2022-09-20T09:21:05.335Z,48.31
2022-09-20T09:23:42.502Z,49.47
2022-09-20T09:26:22.574Z,49.21
2022-09-20T09:29:13.445Z,48.95
2022-09-20T09:31:42.026Z,49.88
2022-09-20T09:34:26.433Z,49.54
2022-09-20T09:36:56.398Z,48.73
2022-09-20T09:39:28.909Z,49.11
2022-09-20T09:42:01.252Z,48.20
2022-09-20T09:44:32.855Z,49.90
2022-09-20T09:47:02.059Z,49.33
2022-09-20T09:49:34.200Z,47.83
2022-09-20T09:52:14.639Z,47.68
2022-09-20T09:54:48.983Z,46.21
2022-09-20T09:57:45.671Z,45.71
2022-09-20T10:00:21.998Z,47.00
2022-09-20T10:03:18.885Z,46.19
2022-09-20T10:06:08.742Z,46.92
2022-09-20T10:08:51.076Z,46.50
2022-09-20T10:11:32.043Z,46.53
2022-09-20T10:14:20.559Z,45.11
2022-09-20T10:17:09.420Z,45.80
2022-09-20T10:19:56.129Z,44.93
2022-09-20T10:22:35.231Z,45.29
2022-09-20T10:25:19.409Z,45.61
2022-09-20T10:28:05.882Z,44.88
2022-09-20T10:30:49.003Z,43.73
2022-09-20T10:33:31.556Z,44.31
2022-09-20T10:36:18.161Z,42.24
2022-09-20T10:38:58.293Z,42.45
2022-09-20T10:42:13.380Z,43.45
2022-09-20T10:45:02.758Z,43.87
2022-09-20T10:47:38.729Z,42.69
2022-09-20T10:50:23.135Z,41.60
2022-09-20T10:53:14.081Z,42.55
2022-09-20T10:55:51.292Z,43.20
2022-09-20T10:58:51.982Z,42.94
2022-09-20T11:01:30.044Z,43.45
2022-09-20T11:04:41.394Z,42.23
2022-09-20T11:07:19.528Z,44.27
2022-09-20T11:10:01.753Z,45.51
2022-09-20T11:12:38.327Z,47.75
2022-09-20T11:15:17.419Z,48.21
2022-09-20T11:17:54.227Z,45.84
2022-09-20T11:20:29.571Z,48.30
2022-09-20T11:23:04.217Z,46.41
2022-09-20T11:25:38.537Z,48.17
2022-09-20T11:28:15.841Z,45.54
2022-09-20T11:30:56.705Z,45.95
2022-09-20T11:33:29.675Z,45.79
2022-09-20T11:36:03.051Z,45.44
2022-09-20T11:38:39.006Z,45.61
2022-09-20T11:41:16.893Z,45.66
2022-09-20T11:43:46.228Z,45.32
2022-09-20T11:46:24.991Z,45.96
2022-09-20T11:48:57.947Z,41.27
2022-09-20T11:52:01.845Z,42.99
2022-09-20T11:55:39.280Z,43.98
2022-09-20T11:58:10.458Z,44.05
2022-09-20T12:00:42.748Z,41.49
2022-09-20T12:03:27.207Z,40.90
2022-09-20T12:06:01.238Z,40.43
2022-09-20T12:08:36.026Z,40.98
2022-09-20T12:11:07.442Z,40.97
2022-09-20T12:13:38.929Z,41.06
2022-09-20T12:16:10.928Z,40.42
2022-09-20T12:19:03.875Z,40.41
2022-09-20T12:21:32.311Z,41.84
2022-09-20T12:24:23.736Z,41.44
2022-09-20T12:26:57.909Z,42.24
2022-09-20T12:30:16.852Z,42.85
2022-09-20T12:33:01.109Z,44.04
2022-09-20T12:36:18.481Z,44.23
2022-09-20T12:39:05.223Z,43.64
2022-09-20T12:41:51.721Z,43.74
2022-09-20T12:44:34.150Z,43.00
2022-09-20T12:47:06.213Z,43.37
2022-09-20T12:50:01.679Z,44.67
2022-09-20T12:52:57.513Z,43.70
2022-09-20T12:55:43.820Z,43.76
2022-09-20T12:58:36.146Z,44.23
2022-09-20T13:01:34.395Z,43.55
2022-09-20T13:05:02.943Z,44.20
2022-09-20T13:07:43.596Z,44.36
2022-09-20T13:10:27.046Z,44.62
2022-09-20T13:13:02.357Z,44.27
2022-09-20T13:15:33.257Z,44.09
2022-09-20T13:18:03.318Z,44.21
2022-09-20T13:20:34.930Z,43.40
2022-09-20T13:23:06.305Z,42.51
2022-09-20T13:25:35.870Z,42.35
2022-09-20T13:28:10.955Z,42.13
2022-09-20T13:30:41.955Z,41.51
2022-09-20T13:33:22.691Z,40.91
2022-09-20T13:35:52.695Z,41.40
2022-09-20T13:38:24.399Z,42.81
2022-09-20T13:40:54.152Z,42.76
2022-09-20T13:43:33.506Z,42.12
2022-09-20T13:46:11.532Z,42.33
2022-09-20T13:48:40.842Z,42.18
2022-09-20T13:51:20.648Z,42.66
2022-09-20T13:53:48.958Z,42.68
2022-09-20T13:56:22.845Z,43.10
2022-09-20T13:58:52.739Z,43.63
2022-09-20T14:01:31.130Z,43.49
2022-09-20T14:04:06.450Z,42.84
2022-09-20T14:06:35.803Z,43.29
2022-09-20T14:09:11.028Z,42.07
2022-09-20T14:11:40.992Z,43.62
2022-09-20T14:14:12.435Z,43.60
2022-09-20T14:16:46.808Z,44.03
2022-09-20T14:19:18.458Z,44.31
2022-09-20T14:21:47.130Z,44.54
2022-09-20T14:24:31.896Z,45.41
2022-09-20T14:27:17.861Z,46.31
2022-09-20T14:29:47.796Z,46.16
2022-09-20T14:32:52.612Z,44.58
2022-09-20T14:35:23.240Z,44.19
2022-09-20T14:37:52.640Z,44.15
2022-09-20T14:40:26.360Z,43.82
2022-09-20T14:42:58.826Z,44.13
2022-09-20T14:45:31.694Z,45.10
2022-09-20T14:48:10.349Z,44.62
2022-09-20T14:50:41.457Z,44.96
2022-09-20T14:53:29.822Z,45.55
2022-09-20T14:56:11.768Z,43.60
2022-09-20T14:59:05.574Z,43.17
2022-09-20T15:01:35.319Z,43.40
2022-09-20T15:04:11.217Z,42.34
2022-09-20T15:06:40.105Z,41.77
2022-09-20T15:09:10.634Z,42.57
2022-09-20T15:11:39.332Z,42.32
2022-09-20T15:14:08.321Z,42.07
2022-09-20T15:16:36.969Z,41.88
2022-09-20T15:19:06.211Z,43.82
2022-09-20T15:21:36.323Z,42.92
2022-09-20T15:24:04.799Z,42.61
2022-09-20T15:26:34.572Z,43.10
2022-09-20T15:29:02.963Z,43.46
2022-09-20T15:31:31.774Z,44.79
2022-09-20T15:34:00.145Z,45.25
2022-09-20T15:36:31.935Z,45.72
2022-09-20T15:39:01.984Z,46.12
2022-09-20T15:41:31.546Z,46.72
2022-09-20T15:44:01.622Z,46.69
2022-09-20T15:46:30.242Z,46.98
2022-09-20T15:49:02.704Z,46.84
2022-09-20T15:51:31.584Z,45.42
2022-09-20T15:54:03.463Z,44.80
2022-09-20T15:56:34.234Z,43.96
2022-09-20T15:59:05.268Z,44.74
2022-09-20T16:01:36.925Z,44.81
2022-09-20T16:04:08.180Z,44.49
2022-09-20T16:06:37.205Z,43.60
2022-09-20T16:09:07.904Z,43.94
2022-09-20T16:11:36.429Z,45.06
2022-09-20T16:14:05.057Z,46.13
2022-09-20T16:16:40.079Z,46.93
2022-09-20T16:19:17.762Z,46.99
2022-09-20T16:21:53.553Z,47.00
2022-09-20T16:24:27.972Z,46.45
2022-09-20T16:26:56.628Z,46.57
2022-09-20T16:29:25.876Z,46.58
2022-09-20T16:31:55.685Z,47.04
2022-09-20T16:34:29.806Z,47.25
2022-09-20T16:37:00.759Z,47.16
2022-09-20T16:39:32.044Z,46.92
2022-09-20T16:42:05.046Z,46.97
2022-09-20T16:44:35.473Z,47.78
2022-09-20T16:47:03.936Z,47.88
2022-09-20T16:49:32.314Z,48.22
2022-09-20T16:52:00.667Z,48.24
2022-09-20T16:54:32.048Z,48.21
2022-09-20T16:57:00.694Z,48.58
2022-09-20T16:59:29.124Z,49.61
2022-09-20T17:01:57.565Z,49.46
2022-09-20T17:04:26.007Z,49.50
2022-09-20T17:06:55.636Z,50.23
2022-09-20T17:09:23.971Z,49.69
2022-09-20T17:11:53.792Z,49.47
2022-09-20T17:14:22.354Z,49.81
2022-09-20T17:16:51.375Z,50.37
2022-09-20T17:19:21.625Z,50.63
2022-09-20T17:21:51.739Z,50.11
2022-09-20T17:24:22.682Z,50.51
2022-09-20T17:26:53.845Z,50.25
2022-09-20T17:29:22.607Z,50.02
2022-09-20T17:31:56.251Z,50.20
2022-09-20T17:34:28.014Z,50.44
2022-09-20T17:36:56.458Z,50.15
2022-09-20T17:39:25.357Z,49.97
2022-09-20T17:41:55.217Z,50.31
2022-09-20T17:44:24.097Z,50.12
2022-09-20T17:46:54.162Z,50.65
2022-09-20T17:49:24.205Z,50.39
2022-09-20T17:51:54.730Z,50.57
2022-09-20T17:54:24.656Z,50.76
2022-09-20T17:56:56.004Z,51.29
2022-09-20T17:59:25.662Z,51.51
2022-09-20T18:01:55.637Z,51.45
2022-09-20T18:04:25.385Z,52.05
2022-09-20T18:06:55.521Z,52.29
2022-09-20T18:09:25.462Z,52.31
2022-09-20T18:11:56.814Z,52.39
2022-09-20T18:14:27.917Z,52.72
2022-09-20T18:17:00.856Z,52.83
2022-09-20T18:19:33.082Z,53.45
2022-09-20T18:22:02.723Z,53.75
2022-09-20T18:24:32.140Z,53.99
2022-09-20T18:27:02.236Z,54.06
2022-09-20T18:29:36.561Z,54.01
2022-09-20T18:32:08.484Z,54.09
2022-09-20T18:34:37.039Z,54.80
2022-09-20T18:37:09.078Z,54.89
2022-09-20T18:39:40.866Z,54.81
2022-09-20T18:42:11.331Z,54.82
2022-09-20T18:44:43.165Z,55.68
2022-09-20T18:47:11.757Z,56.19
2022-09-20T18:49:40.236Z,57.79
2022-09-20T18:52:10.745Z,59.27
2022-09-20T18:54:39.116Z,60.70
2022-09-20T18:57:11.314Z,61.37
2022-09-20T18:59:53.771Z,62.01
2022-09-20T19:02:50.466Z,60.52
2022-09-20T19:05:29.526Z,59.61
2022-09-20T19:08:18.008Z,59.05
2022-09-20T19:10:53.325Z,59.17
2022-09-20T19:13:36.393Z,61.14
2022-09-20T19:16:18.566Z,62.64
2022-09-20T19:19:24.731Z,63.59
2022-09-20T19:22:00.020Z,64.22
2022-09-20T19:24:58.231Z,65.62
2022-09-20T19:27:27.650Z,66.02
2022-09-20T19:29:58.590Z,65.80
2022-09-20T19:32:27.908Z,65.02
2022-09-20T19:35:01.666Z,63.79
2022-09-20T19:37:38.940Z,63.31
2022-09-20T19:40:27.445Z,63.65
2022-09-20T19:43:15.161Z,64.95
2022-09-20T19:45:57.242Z,66.30
2022-09-20T19:48:35.466Z,67.17
2022-09-20T19:51:08.361Z,67.05
2022-09-20T19:53:38.075Z,66.96
2022-09-20T19:56:24.769Z,66.90
2022-09-20T19:58:55.931Z,67.19
2022-09-20T20:01:27.758Z,66.97
2022-09-20T20:03:57.117Z,67.76
2022-09-20T20:06:33.894Z,67.67
2022-09-20T20:09:09.800Z,67.80
2022-09-20T20:11:47.606Z,67.09
2022-09-20T20:14:24.958Z,66.45
2022-09-20T20:17:11.477Z,65.54
2022-09-20T20:19:55.341Z,65.10
2022-09-20T20:22:52.310Z,64.67
2022-09-20T20:25:28.406Z,64.73
2022-09-20T20:27:56.862Z,65.68
2022-09-20T20:30:25.825Z,66.95
2022-09-20T20:32:58.717Z,67.22
2022-09-20T20:35:27.903Z,67.87
2022-09-20T20:37:56.186Z,68.28
2022-09-20T20:40:25.033Z,67.94
2022-09-20T20:43:02.177Z,67.74
2022-09-20T20:45:31.044Z,68.84
2022-09-20T20:48:01.340Z,69.30
2022-09-20T20:50:30.492Z,69.31
2022-09-20T20:52:58.961Z,68.80
2022-09-20T20:55:27.409Z,68.93
2022-09-20T20:57:58.286Z,67.89
2022-09-20T21:00:27.586Z,67.49
2022-09-20T21:03:02.046Z,67.03
2022-09-20T21:05:31.969Z,66.81
2022-09-20T21:08:00.447Z,66.68
2022-09-20T21:10:29.008Z,66.37
2022-09-20T21:12:57.634Z,66.41
2022-09-20T21:15:26.232Z,66.62
2022-09-20T21:17:55.236Z,66.37
2022-09-20T21:20:25.862Z,66.29
2022-09-20T21:22:54.351Z,65.92
2022-09-20T21:25:22.646Z,65.66
2022-09-20T21:27:50.898Z,65.19
2022-09-20T21:30:20.585Z,65.38
2022-09-20T21:32:49.021Z,66.55
2022-09-20T21:35:17.526Z,66.92
2022-09-20T21:37:47.621Z,66.29
2022-09-20T21:40:16.181Z,66.66
2022-09-20T21:42:44.543Z,65.70
2022-09-20T21:45:12.940Z,65.16
2022-09-20T21:47:41.377Z,65.77
2022-09-20T21:50:10.898Z,67.17
2022-09-20T21:52:39.219Z,67.62
2022-09-20T21:55:10.750Z,68.36
2022-09-20T21:57:39.132Z,69.14
2022-09-20T22:00:10.076Z,69.59
2022-09-20T22:02:40.910Z,70.16
2022-09-20T22:05:09.925Z,70.75
2022-09-20T22:07:38.172Z,70.93
2022-09-20T22:10:09.445Z,70.80
2022-09-20T22:12:37.865Z,70.98
2022-09-20T22:15:07.690Z,71.12
2022-09-20T22:17:36.054Z,71.22
2022-09-20T22:20:06.054Z,71.23
2022-09-20T22:22:34.866Z,71.55
2022-09-20T22:25:03.628Z,71.62
2022-09-20T22:27:33.950Z,71.29
2022-09-20T22:30:04.925Z,71.09
2022-09-20T22:32:34.126Z,70.96
2022-09-20T22:35:02.875Z,70.71
2022-09-20T22:37:31.751Z,70.69
2022-09-20T22:40:00.660Z,70.73
2022-09-20T22:42:29.589Z,70.56
2022-09-20T22:45:00.447Z,70.65
2022-09-20T22:47:29.220Z,71.61
2022-09-20T22:49:57.937Z,72.16
2022-09-20T22:52:26.744Z,72.19
2022-09-20T22:54:55.728Z,72.52
2022-09-20T22:57:24.575Z,72.46
2022-09-20T22:59:53.323Z,71.98
2022-09-20T23:02:23.703Z,71.76
2022-09-20T23:04:52.629Z,71.88
2022-09-20T23:07:21.428Z,72.06
2022-09-20T23:09:50.374Z,72.05
2022-09-20T23:12:19.222Z,72.36
2022-09-20T23:14:48.047Z,72.71
2022-09-20T23:17:16.864Z,73.14
2022-09-20T23:19:47.091Z,73.04
2022-09-20T23:22:15.886Z,73.26
2022-09-20T23:24:44.626Z,73.59
2022-09-20T23:27:14.653Z,73.84
2022-09-20T23:29:43.593Z,73.77
2022-09-20T23:32:12.402Z,73.34
2022-09-20T23:34:41.214Z,73.27
2022-09-20T23:37:12.052Z,72.88
2022-09-20T23:39:42.613Z,72.10
2022-09-20T23:42:11.501Z,72.62
2022-09-20T23:44:40.277Z,72.96
2022-09-20T23:47:09.184Z,73.13
2022-09-20T23:49:37.878Z,72.86
2022-09-20T23:52:06.836Z,73.35
2022-09-20T23:54:36.968Z,73.91
2022-09-20T23:57:06.535Z,74.21
2022-09-20T23:59:35.384Z,74.53
